Torning, Denmark
Current Conditions -  °F | °C
As of 5:50 PM on Thursday 30 Oct 2014 (Local Time) from EKKA Reporting Station
Broken Clouds Broken Clouds  
Wind Chill: 46°   Ceiling: 15000
Heat Index: 46°   Visibility: 6mi
Dew Point: 43°   Wind: 3mph
Humidity: 87%   Direction: 160°SSE
Pressure: 30.21"   Gusts: NA
Location:  56.28°N, 9.33°E
Report Text: EKKA 301650Z AUTO 16003KT 9999NDV BKN150/// 08/06 Q1023
Loading
Personal Weather Stations






























Interactive Weather Map
Tropical Storm Tracking
New forecast layout! Learn more

10-Day Weather Forecast

Advertisements
Track Severe Weather on mobile